Time;durP1;ratioP1;P1;durP2;ratioP2;P2;SDS_P1;SDS_P2;PMS_P1;PMS_P2;Temp;Humidity;BMP_temperature;BMP_pressure;BME280_temperature;BME280_humidity;BME280_pressure;Samples;Min_cycle;Max_cycle;Signal;HPM_P1;HPM_P2
2023/08/26 00:00:35;;;;;;;7.30;6.40;;;;;;;21.08;74.33;100222.01;84002;286;138383;-66
2023/08/26 00:02:38;;;;;;;9.40;6.10;;;;;;;21.07;74.78;100221.45;84030;285;22552;-68
2023/08/26 00:04:39;;;;;;;7.90;6.60;;;;;;;21.05;75.12;100221.61;83911;285;136208;-68
2023/08/26 00:06:42;;;;;;;6.70;6.10;;;;;;;21.04;75.21;100220.41;84079;285;25230;-62
2023/08/26 00:08:44;;;;;;;10.10;7.00;;;;;;;21.04;75.27;100220.47;83952;284;136098;-64
2023/08/26 00:10:45;;;;;;;8.20;6.90;;;;;;;21.04;75.31;100217.48;84147;284;22550;-70
2023/08/26 00:12:47;;;;;;;7.60;6.00;;;;;;;21.05;75.41;100217.55;84118;284;136045;-69
2023/08/26 00:14:49;;;;;;;7.80;7.00;;;;;;;21.04;75.58;100215.70;84133;285;25159;-67
2023/08/26 00:16:51;;;;;;;10.70;6.30;;;;;;;21.02;75.92;100215.27;84150;284;136875;-69
2023/08/26 00:18:54;;;;;;;8.00;6.60;;;;;;;21.04;76.14;100216.51;84239;284;24140;-69
2023/08/26 00:20:57;;;;;;;7.60;6.90;;;;;;;21.05;76.06;100223.71;84068;284;136801;-69
2023/08/26 00:23:00;;;;;;;7.00;6.30;;;;;;;21.05;75.94;100221.62;84119;284;24040;-69
2023/08/26 00:25:03;;;;;;;11.20;6.70;;;;;;;21.06;76.05;100225.36;84124;293;136917;-68
2023/08/26 00:27:05;;;;;;;15.50;6.40;;;;;;;21.08;76.13;100222.01;84263;284;25259;-67
2023/08/26 00:29:08;;;;;;;8.20;6.50;;;;;;;21.13;76.25;100220.52;84062;284;136937;-67
2023/08/26 00:31:10;;;;;;;7.00;6.30;;;;;;;21.14;76.29;100221.83;84232;284;22570;-63
2023/08/26 00:33:12;;;;;;;7.70;6.30;;;;;;;21.17;76.31;100218.98;84223;284;136498;-66
2023/08/26 00:35:15;;;;;;;9.80;7.10;;;;;;;21.15;76.36;100216.31;84099;286;24340;-67
2023/08/26 00:37:17;;;;;;;10.30;6.80;;;;;;;21.14;76.69;100222.64;84022;285;136503;-66
2023/08/26 00:39:21;;;;;;;9.40;7.00;;;;;;;21.13;76.65;100222.52;84256;284;23748;-67
2023/08/26 00:41:23;;;;;;;8.60;6.60;;;;;;;21.16;76.61;100222.33;83972;286;137319;-66
2023/08/26 00:43:27;;;;;;;8.50;6.90;;;;;;;21.19;76.56;100217.48;84187;286;22588;-68
2023/08/26 00:45:29;;;;;;;8.50;6.60;;;;;;;21.20;76.69;100218.46;84063;285;137169;-69
2023/08/26 00:47:32;;;;;;;10.90;6.40;;;;;;;21.20;76.83;100220.67;84256;285;22570;-68
2023/08/26 00:49:35;;;;;;;9.40;7.20;;;;;;;21.21;76.88;100215.65;84175;284;140304;-68
2023/08/26 00:51:37;;;;;;;7.20;5.90;;;;;;;21.22;76.79;100215.70;84229;285;22661;-66
2023/08/26 00:53:40;;;;;;;11.00;6.90;;;;;;;21.24;76.83;100212.73;84210;285;136480;-66
2023/08/26 00:55:43;;;;;;;9.10;7.10;;;;;;;21.26;76.73;100216.44;84213;286;22552;-65
2023/08/26 00:57:46;;;;;;;9.00;6.70;;;;;;;21.26;76.86;100214.42;84019;285;136070;-67
2023/08/26 00:59:48;;;;;;;8.50;7.10;;;;;;;21.27;76.83;100214.33;84282;285;24118;-67
2023/08/26 01:01:52;;;;;;;10.00;7.70;;;;;;;21.28;76.82;100213.13;84102;284;136146;-69
2023/08/26 01:03:56;;;;;;;7.60;6.80;;;;;;;21.26;77.00;100210.58;84201;284;24345;-65
2023/08/26 01:06:02;;;;;;;8.50;6.10;;;;;;;21.27;77.18;100210.91;84027;285;137222;-66
2023/08/26 01:08:06;;;;;;;10.10;6.70;;;;;;;21.27;77.32;100202.89;83958;284;137282;-64
2023/08/26 01:10:09;;;;;;;6.60;6.00;;;;;;;21.27;77.42;100206.20;84157;285;22894;-63
2023/08/26 01:12:32;;;;;;;6.70;6.00;;;;;;;21.25;77.50;100201.56;84131;285;137558;-69
2023/08/26 01:14:37;;;;;;;7.00;6.20;;;;;;;21.22;77.79;100202.47;84097;285;24147;-67
2023/08/26 01:16:41;;;;;;;7.40;6.60;;;;;;;21.22;77.75;100198.61;84059;284;138039;-69
2023/08/26 01:18:44;;;;;;;6.20;5.50;;;;;;;21.23;77.77;100202.30;84177;286;26249;-68
2023/08/26 01:20:47;;;;;;;6.70;6.00;;;;;;;21.24;77.72;100201.77;84211;284;136901;-68
2023/08/26 01:22:53;;;;;;;7.70;5.80;;;;;;;21.24;77.68;100203.62;84333;284;22708;-69
2023/08/26 01:24:55;;;;;;;8.40;6.60;;;;;;;21.23;77.94;100200.96;84223;284;136420;-69
2023/08/26 01:26:58;;;;;;;7.90;6.70;;;;;;;21.21;78.05;100200.89;84171;286;22822;-67
2023/08/26 01:29:00;;;;;;;8.90;7.10;;;;;;;21.14;78.22;100197.16;84047;285;136503;-67
2023/08/26 01:31:10;;;;;;;7.00;6.30;;;;;;;21.17;78.39;100204.77;84254;285;22612;-70
2023/08/26 01:33:24;;;;;;;7.70;6.00;;;;;;;21.18;78.58;100202.67;84078;284;137204;-69
2023/08/26 01:35:36;;;;;;;9.60;6.40;;;;;;;21.18;78.55;100204.08;84263;285;22576;-67
2023/08/26 01:37:41;;;;;;;8.20;6.50;;;;;;;21.18;78.77;100201.26;84054;285;136979;-71
2023/08/26 01:39:44;;;;;;;6.40;5.80;;;;;;;21.20;78.77;100198.84;84284;285;25138;-71
2023/08/26 01:41:50;;;;;;;7.30;6.60;;;;;;;21.22;78.63;100196.19;84209;261;137105;-69
2023/08/26 01:43:53;;;;;;;7.80;5.90;;;;;;;21.25;78.40;100197.02;84218;285;22557;-68
2023/08/26 01:45:55;;;;;;;6.70;5.50;;;;;;;21.28;78.16;100193.89;84192;285;137014;-66
2023/08/26 01:47:57;;;;;;;6.40;5.10;;;;;;;21.32;77.99;100190.70;84270;284;22583;-67
2023/08/26 01:49:59;;;;;;;10.80;6.10;;;;;;;21.36;77.56;100186.81;84064;286;136418;-67
2023/08/26 01:52:01;;;;;;;9.20;5.00;;;;;;;21.37;76.65;100190.73;84137;283;24218;-69
2023/08/26 01:54:06;;;;;;;7.90;5.40;;;;;;;21.38;75.86;100187.16;84280;284;22670;-67
2023/08/26 01:56:10;;;;;;;;;;;;;;;21.39;75.43;100187.70;84100;283;136802;-68
2023/08/26 01:58:12;;;;;;;5.70;5.20;;;;;;;21.37;74.82;100188.73;84205;284;22560;-66
2023/08/26 02:00:15;;;;;;;7.70;4.60;;;;;;;21.34;73.97;100190.12;84060;285;137887;-63
2023/08/26 02:02:17;;;;;;;5.90;5.30;;;;;;;21.35;73.47;100192.56;84308;284;22601;-69
2023/08/26 02:04:20;;;;;;;7.00;6.10;;;;;;;21.37;73.54;100192.41;84073;284;136839;-68
2023/08/26 02:06:21;;;;;;;6.60;6.00;;;;;;;21.38;73.92;100188.73;84346;286;22636;-68
2023/08/26 02:08:23;;;;;;;10.50;6.70;;;;;;;21.41;74.14;100187.13;84106;285;139504;-68
2023/08/26 02:10:25;;;;;;;7.20;5.70;;;;;;;21.42;74.48;100187.98;84209;285;25194;-67
2023/08/26 02:12:28;;;;;;;6.50;5.40;;;;;;;21.42;74.76;100184.09;84102;285;137900;-63
2023/08/26 02:14:29;;;;;;;5.90;5.20;;;;;;;21.41;74.84;100185.44;84080;285;22579;-64
2023/08/26 02:16:31;;;;;;;6.50;5.60;;;;;;;21.40;74.38;100184.77;83958;286;137147;-65
2023/08/26 02:18:37;;;;;;;4.70;4.10;;;;;;;21.39;72.59;100188.36;84199;285;22740;-64
2023/08/26 02:20:43;;;;;;;4.30;3.90;;;;;;;21.39;71.63;100188.41;84047;286;136447;-66
2023/08/26 02:22:45;;;;;;;6.60;5.10;;;;;;;21.38;71.47;100186.36;84218;285;22553;-64
2023/08/26 02:24:46;;;;;;;5.80;5.20;;;;;;;21.37;70.89;100188.08;83957;285;136105;-66
2023/08/26 02:26:48;;;;;;;6.40;5.10;;;;;;;21.35;70.18;100192.77;84018;285;22567;-65
2023/08/26 02:28:50;;;;;;;8.30;4.20;;;;;;;21.34;70.26;100192.34;84011;285;136933;-65
2023/08/26 02:30:52;;;;;;;6.40;3.90;;;;;;;21.32;69.19;100191.36;84133;283;22570;-66
2023/08/26 02:32:54;;;;;;;3.60;3.20;;;;;;;21.31;67.25;100189.19;83953;285;135725;-67
2023/08/26 02:34:56;;;;;;;5.70;4.40;;;;;;;21.32;66.10;100190.00;84101;284;23729;-65
2023/08/26 02:36:57;;;;;;;4.60;4.20;;;;;;;21.34;64.91;100191.30;84014;284;136684;-65
2023/08/26 02:38:59;;;;;;;3.80;3.40;;;;;;;21.36;64.34;100190.67;84173;284;24702;-66
2023/08/26 02:41:02;;;;;;;3.90;3.50;;;;;;;21.39;64.21;100191.50;83973;284;136450;-65
2023/08/26 02:43:04;;;;;;;4.80;4.10;;;;;;;21.41;64.06;100189.17;84125;285;22681;-65
2023/08/26 02:45:08;;;;;;;5.00;3.40;;;;;;;21.43;64.01;100187.14;84039;284;136145;-68
2023/08/26 02:47:09;;;;;;;6.30;4.10;;;;;;;21.45;64.19;100189.55;84177;284;25200;-68
2023/08/26 02:49:14;;;;;;;4.20;3.80;;;;;;;21.46;63.86;100186.85;84144;284;136460;-65
2023/08/26 02:51:15;;;;;;;6.80;4.10;;;;;;;21.47;64.05;100184.73;84177;285;22549;-67
2023/08/26 02:53:17;;;;;;;4.30;4.00;;;;;;;21.47;64.26;100183.21;84929;284;136444;-65
2023/08/26 02:55:19;;;;;;;5.70;4.30;;;;;;;21.50;64.65;100183.88;85043;286;22593;-62
2023/08/26 02:57:21;;;;;;;7.60;4.40;;;;;;;21.52;64.88;100181.67;84076;284;137859;-71
2023/08/26 02:59:26;;;;;;;6.50;4.60;;;;;;;21.53;65.35;100186.02;84131;284;23788;-69
2023/08/26 03:01:30;;;;;;;5.60;4.70;;;;;;;21.52;65.45;100186.45;84195;284;137037;-70
2023/08/26 03:03:32;;;;;;;4.40;3.50;;;;;;;21.52;65.69;100186.65;84242;285;24043;-69
2023/08/26 03:05:37;;;;;;;7.40;4.70;;;;;;;21.51;65.84;100185.91;84112;284;136456;-70
2023/08/26 03:07:39;;;;;;;10.40;4.80;;;;;;;21.53;66.31;100188.07;84177;285;22662;-69
2023/08/26 03:09:41;;;;;;;7.20;4.20;;;;;;;21.54;66.82;100187.91;84136;285;136183;-68
2023/08/26 03:11:43;;;;;;;5.80;5.10;;;;;;;21.57;68.02;100186.14;84244;285;23274;-72
2023/08/26 03:13:45;;;;;;;5.20;4.50;;;;;;;21.58;69.65;100184.51;83983;286;136416;-73
2023/08/26 03:15:46;;;;;;;8.10;5.30;;;;;;;21.58;70.62;100183.27;84126;284;25286;-67
2023/08/26 03:17:48;;;;;;;8.00;4.80;;;;;;;21.56;71.03;100186.35;83965;285;137141;-69
2023/08/26 03:19:51;;;;;;;6.10;5.50;;;;;;;21.55;71.47;100183.10;84008;286;25158;-67
2023/08/26 03:21:52;;;;;;;6.30;4.60;;;;;;;21.54;71.62;100181.58;83912;286;138662;-69
2023/08/26 03:23:55;;;;;;;5.60;5.10;;;;;;;21.55;71.49;100187.39;84209;284;22665;-63
2023/08/26 03:25:57;;;;;;;6.60;5.30;;;;;;;21.57;71.86;100192.21;84094;285;137322;-67
2023/08/26 03:27:59;;;;;;;7.50;5.90;;;;;;;21.56;71.98;100194.05;84278;283;25265;-71
2023/08/26 03:30:00;;;;;;;6.20;5.30;;;;;;;21.56;72.14;100193.77;84118;285;136840;-67
2023/08/26 03:32:05;;;;;;;9.00;5.20;;;;;;;21.55;72.19;100194.27;84088;285;136789;-66
2023/08/26 03:34:07;;;;;;;9.10;6.40;;;;;;;21.56;72.23;100192.95;84122;285;22548;-68
2023/08/26 03:36:09;;;;;;;10.20;5.50;;;;;;;21.56;72.23;100189.98;84015;285;136818;-66
2023/08/26 03:38:11;;;;;;;9.60;5.70;;;;;;;21.57;72.14;100193.35;84056;286;22900;-69
2023/08/26 03:40:13;;;;;;;8.00;5.50;;;;;;;21.59;72.25;100197.05;84052;284;136492;-64
2023/08/26 03:42:15;;;;;;;7.80;5.80;;;;;;;21.61;72.21;100196.19;84291;284;24102;-63
2023/08/26 03:44:17;;;;;;;7.20;5.70;;;;;;;21.62;72.27;100198.84;83948;284;136611;-61
2023/08/26 03:46:19;;;;;;;5.40;4.90;;;;;;;21.63;72.35;100194.83;83970;286;22552;-63
2023/08/26 03:48:21;;;;;;;6.70;6.00;;;;;;;21.65;72.03;100193.21;84170;285;137374;-67
2023/08/26 03:50:23;;;;;;;6.10;5.50;;;;;;;21.67;71.72;100190.69;84117;285;22567;-68
2023/08/26 03:52:25;;;;;;;5.70;4.90;;;;;;;21.69;71.78;100182.66;83982;286;136703;-67
2023/08/26 03:54:26;;;;;;;10.30;5.10;;;;;;;21.70;71.69;100183.96;84122;285;22553;-68
2023/08/26 03:56:28;;;;;;;6.50;5.80;;;;;;;21.72;71.48;100183.48;83807;284;136588;-66
2023/08/26 03:58:30;;;;;;;9.00;5.40;;;;;;;21.75;71.42;100185.02;83966;284;22546;-68
2023/08/26 04:00:32;;;;;;;11.10;6.00;;;;;;;21.81;71.25;100184.44;83947;284;136527;-70
2023/08/26 04:02:44;;;;;;;6.20;4.90;;;;;;;21.88;71.10;100179.09;83952;284;22673;-66
2023/08/26 04:04:49;;;;;;;10.00;5.80;;;;;;;21.99;70.75;100172.05;84042;285;136421;-66
2023/08/26 04:06:52;;;;;;;6.00;5.10;;;;;;;22.16;70.44;100169.20;84112;285;22565;-68
2023/08/26 04:08:54;;;;;;;10.30;5.00;;;;;;;22.40;69.51;100160.94;83975;286;136938;-68
2023/08/26 04:10:57;;;;;;;6.10;5.60;;;;;;;22.88;68.41;100163.57;84001;286;25262;-65
2023/08/26 04:13:01;;;;;;;6.90;5.50;;;;;;;23.45;66.45;100163.64;84035;284;137649;-62
2023/08/26 04:15:04;;;;;;;5.80;4.80;;;;;;;24.07;63.97;100162.53;84157;286;22570;-66
2023/08/26 04:17:06;;;;;;;9.30;5.90;;;;;;;24.69;61.64;100158.24;84009;286;137287;-67
2023/08/26 04:19:08;;;;;;;7.60;5.40;;;;;;;25.27;59.03;100160.54;84008;285;24243;-67
2023/08/26 04:21:10;;;;;;;9.70;5.50;;;;;;;25.73;56.42;100156.20;83910;285;137582;-69
2023/08/26 04:23:12;;;;;;;7.90;4.80;;;;;;;26.00;55.14;100143.01;84036;285;25189;-67
2023/08/26 04:25:14;;;;;;;7.20;5.80;;;;;;;26.34;53.71;100143.95;84066;284;136996;-67
2023/08/26 04:27:16;;;;;;;6.00;4.80;;;;;;;26.63;52.67;100140.98;84128;283;25179;-68
2023/08/26 04:29:18;;;;;;;9.50;5.70;;;;;;;26.81;51.27;100138.36;84254;283;136434;-67
2023/08/26 04:31:20;;;;;;;6.20;3.90;;;;;;;26.91;50.74;100140.79;84136;284;22749;-66
2023/08/26 04:33:22;;;;;;;4.70;4.30;;;;;;;27.05;50.92;100147.70;83999;286;136475;-67
2023/08/26 04:35:25;;;;;;;4.50;4.20;;;;;;;27.40;50.29;100148.56;84209;284;26217;-67
2023/08/26 04:37:28;;;;;;;7.90;5.30;;;;;;;27.90;49.27;100149.51;84125;284;136460;-65
2023/08/26 04:39:29;;;;;;;9.10;4.70;;;;;;;28.42;48.25;100142.08;84028;286;24138;-66
2023/08/26 04:41:32;;;;;;;7.40;4.00;;;;;;;28.99;46.48;100143.04;83992;284;136481;-67
2023/08/26 04:43:34;;;;;;;6.50;4.10;;;;;;;29.28;43.19;100146.02;84050;284;24254;-69
2023/08/26 04:45:37;;;;;;;5.40;3.10;;;;;;;29.14;42.60;100140.10;83860;287;137631;-70
2023/08/26 04:47:39;;;;;;;7.10;3.30;;;;;;;28.83;43.01;100146.02;84240;284;25216;-75
2023/08/26 04:49:41;;;;;;;6.30;3.30;;;;;;;28.58;43.03;100142.80;83908;285;137130;-67
2023/08/26 04:51:50;;;;;;;3.50;2.80;;;;;;;28.43;43.10;100141.55;83945;285;25251;-63
2023/08/26 04:53:52;;;;;;;6.20;2.70;;;;;;;28.25;43.57;100146.69;84004;286;136363;-68
2023/08/26 04:55:53;;;;;;;4.80;3.10;;;;;;;28.10;42.97;100143.23;84062;285;26560;-67
2023/08/26 04:57:56;;;;;;;3.00;2.70;;;;;;;27.88;43.19;100141.33;83893;286;136268;-70
2023/08/26 04:59:59;;;;;;;3.70;2.60;;;;;;;27.75;43.83;100142.27;84120;284;22749;-62
2023/08/26 05:02:04;;;;;;;2.60;2.50;;;;;;;27.90;43.99;100140.70;84043;285;135909;-63
2023/08/26 05:04:06;;;;;;;6.10;2.70;;;;;;;28.12;43.73;100145.50;83947;286;136268;-64
2023/08/26 05:06:07;;;;;;;5.70;2.60;;;;;;;28.35;43.31;100132.94;84108;285;25269;-63
2023/08/26 05:08:09;;;;;;;2.70;2.50;;;;;;;28.64;43.04;100127.83;84011;285;137962;-64
2023/08/26 05:10:13;;;;;;;;;;;;;;;29.17;42.23;100136.73;84162;284;22552;-64
2023/08/26 05:12:15;;;;;;;2.60;2.50;;;;;;;29.61;40.39;100135.44;83953;264;123114;-63
2023/08/26 05:14:17;;;;;;;4.40;2.50;;;;;;;29.93;39.71;100135.13;83634;284;772605;-65
2023/08/26 05:16:19;;;;;;;4.60;2.30;;;;;;;30.24;38.40;100130.36;83984;278;137340;-63
2023/08/26 05:18:21;;;;;;;3.30;2.20;;;;;;;30.39;37.84;100129.16;84112;285;25199;-64
2023/08/26 05:20:23;;;;;;;2.10;2.00;;;;;;;30.20;37.87;100129.00;83826;284;138285;-64
2023/08/26 05:22:24;;;;;;;3.30;1.80;;;;;;;29.86;38.22;100124.70;84060;285;24355;-63
2023/08/26 05:24:30;;;;;;;10.70;2.30;;;;;;;29.71;38.87;100126.25;84041;284;137594;-65
2023/08/26 05:26:32;;;;;;;2.10;1.10;;;;;;;29.55;38.49;100127.71;83963;285;22557;-65
2023/08/26 05:28:35;;;;;;;3.30;2.00;;;;;;;29.36;38.80;100129.01;83955;284;136252;-64
2023/08/26 05:30:37;;;;;;;2.40;2.10;;;;;;;29.23;39.04;100123.84;83978;285;23731;-63
2023/08/26 05:32:39;;;;;;;2.10;1.90;;;;;;;28.97;39.27;100123.17;84027;285;136845;-62
2023/08/26 05:34:41;;;;;;;5.20;1.80;;;;;;;28.64;39.75;100120.29;84104;285;24146;-61
2023/08/26 05:36:43;;;;;;;2.60;1.80;;;;;;;28.30;40.81;100124.41;84091;284;137696;-61
2023/08/26 05:38:45;;;;;;;3.10;2.20;;;;;;;27.91;41.26;100125.73;84102;286;22833;-60
2023/08/26 05:40:47;;;;;;;2.50;1.80;;;;;;;27.50;41.95;100124.09;83843;283;136451;-58
2023/08/26 05:42:49;;;;;;;2.30;1.50;;;;;;;27.14;42.51;100122.14;83957;285;26328;-60
2023/08/26 05:44:51;;;;;;;1.80;1.70;;;;;;;26.85;43.04;100125.49;83840;284;136264;-58
2023/08/26 05:46:55;;;;;;;2.50;2.30;;;;;;;26.65;43.89;100124.54;83998;286;23723;-62
2023/08/26 05:48:56;;;;;;;3.50;2.30;;;;;;;26.65;44.37;100126.63;83863;285;138374;-62
2023/08/26 05:50:59;;;;;;;5.00;2.00;;;;;;;26.85;44.46;100123.23;83889;285;25186;-61
2023/08/26 05:53:01;;;;;;;2.10;1.90;;;;;;;27.27;43.71;100122.60;85065;285;136019;-62
2023/08/26 05:55:06;;;;;;;3.30;2.20;;;;;;;27.76;42.33;100124.73;84094;286;22550;-62
2023/08/26 05:57:11;;;;;;;2.70;1.60;;;;;;;28.24;41.93;100120.35;84217;285;137366;-61
2023/08/26 05:59:13;;;;;;;3.60;1.60;;;;;;;28.57;40.76;100113.20;83985;286;22699;-63
2023/08/26 06:01:14;;;;;;;2.20;1.90;;;;;;;28.86;39.38;100122.19;83819;285;136525;-64
2023/08/26 06:03:16;;;;;;;4.60;1.00;;;;;;;28.85;38.59;100122.77;84088;286;22565;-62
2023/08/26 06:05:22;;;;;;;5.50;1.90;;;;;;;28.73;38.80;100125.01;84191;284;136693;-63
2023/08/26 06:07:24;;;;;;;3.40;2.30;;;;;;;28.64;38.86;100122.02;83919;286;25228;-65
2023/08/26 06:09:26;;;;;;;2.60;1.40;;;;;;;28.45;38.85;100117.55;83843;286;136509;-63
2023/08/26 06:11:28;;;;;;;2.20;1.80;;;;;;;28.20;39.22;100113.84;84148;284;25137;-66
2023/08/26 06:13:31;;;;;;;4.50;2.20;;;;;;;28.12;40.11;100115.59;83783;286;136799;-64
2023/08/26 06:15:33;;;;;;;3.90;1.60;;;;;;;28.16;40.70;100112.36;83938;285;22698;-62
2023/08/26 06:17:37;;;;;;;3.80;1.60;;;;;;;28.21;39.24;100112.04;84038;286;135906;-60
2023/08/26 06:19:39;;;;;;;3.60;2.10;;;;;;;28.12;39.13;100115.30;83989;286;22698;-63
2023/08/26 06:21:40;;;;;;;2.40;1.40;;;;;;;28.10;39.24;100111.84;83778;286;135840;-65
2023/08/26 06:23:44;;;;;;;4.20;1.30;;;;;;;28.11;39.50;100109.43;84052;284;22579;-66
2023/08/26 06:25:52;;;;;;;2.10;1.70;;;;;;;28.19;39.38;100108.20;83903;286;136076;-65
2023/08/26 06:27:55;;;;;;;2.20;1.60;;;;;;;28.26;39.06;100111.79;84220;285;22550;-62
2023/08/26 06:29:58;;;;;;;2.50;1.30;;;;;;;28.35;38.50;100108.88;84212;285;135921;-62
2023/08/26 06:32:01;;;;;;;2.30;2.10;;;;;;;28.35;38.85;100108.78;83994;286;25293;-64
2023/08/26 06:34:06;;;;;;;;;;;;;;;28.32;38.59;100112.33;84244;285;22643;-65
2023/08/26 06:36:08;;;;;;;5.50;1.20;;;;;;;28.33;38.20;100112.39;84109;284;122956;-64
2023/08/26 06:38:10;;;;;;;1.40;1.00;;;;;;;28.26;38.24;100111.30;84200;284;25300;-66
2023/08/26 06:40:12;;;;;;;1.50;1.00;;;;;;;28.27;38.82;100112.60;83950;263;137623;-66
2023/08/26 06:42:14;;;;;;;3.80;1.10;;;;;;;28.29;39.01;100111.50;83992;286;24311;-64
2023/08/26 06:44:25;;;;;;;5.30;1.90;;;;;;;28.21;38.49;100112.85;83869;285;136567;-71
2023/08/26 06:46:26;;;;;;;3.20;1.80;;;;;;;27.95;38.85;100110.52;84011;285;22562;-64
2023/08/26 06:48:28;;;;;;;6.50;1.90;;;;;;;27.69;39.48;100102.98;83907;284;136423;-65
2023/08/26 06:50:30;;;;;;;5.40;2.10;;;;;;;27.44;39.55;100103.27;83982;285;22760;-66
2023/08/26 06:52:34;;;;;;;8.30;1.90;;;;;;;27.25;40.09;100106.55;83787;286;135932;-66
2023/08/26 06:54:35;;;;;;;3.10;2.40;;;;;;;27.09;40.81;100105.77;84053;286;26183;-62
2023/08/26 06:56:39;;;;;;;4.60;1.30;;;;;;;26.95;41.19;100107.08;83867;285;136354;-62
2023/08/26 06:58:41;;;;;;;4.10;1.20;;;;;;;26.83;41.32;100108.74;83972;284;25138;-67
2023/08/26 07:00:43;;;;;;;3.00;1.60;;;;;;;26.74;41.85;100113.84;83925;274;136455;-63
2023/08/26 07:02:46;;;;;;;3.40;1.70;;;;;;;26.69;42.06;100111.80;83996;284;22583;-66
2023/08/26 07:04:48;;;;;;;2.00;1.20;;;;;;;26.68;42.25;100116.73;83938;286;136219;-64
2023/08/26 07:06:50;;;;;;;1.90;1.20;;;;;;;26.71;41.98;100114.10;84122;284;25367;-64
2023/08/26 07:08:56;;;;;;;4.70;1.60;;;;;;;26.75;42.31;100119.00;83911;284;136187;-61
2023/08/26 07:10:58;;;;;;;3.20;1.70;;;;;;;26.76;42.01;100121.67;84095;284;25299;-62
2023/08/26 07:13:00;;;;;;;2.80;1.50;;;;;;;26.75;42.23;100122.30;84019;274;136976;-61
2023/08/26 07:15:03;;;;;;;2.70;1.80;;;;;;;26.77;42.65;100123.35;84086;285;24069;-65
2023/08/26 07:17:05;;;;;;;2.80;1.20;;;;;;;26.80;42.66;100124.17;84171;284;136198;-64
2023/08/26 07:19:08;;;;;;;1.70;1.50;;;;;;;26.84;42.18;100126.17;84067;285;22775;-65
2023/08/26 07:21:10;;;;;;;4.20;1.70;;;;;;;26.91;41.86;100123.95;85083;285;136779;-62
2023/08/26 07:23:12;;;;;;;2.60;1.10;;;;;;;26.98;41.93;100121.57;83978;284;22561;-68
2023/08/26 07:25:15;;;;;;;3.70;1.60;;;;;;;27.06;41.86;100121.31;83964;285;137740;-76
2023/08/26 07:27:18;;;;;;;3.60;1.00;;;;;;;27.15;41.56;100119.55;84447;285;25232;-69
2023/08/26 07:29:19;;;;;;;1.30;1.00;;;;;;;27.28;41.31;100121.67;83995;285;137793;-62
2023/08/26 07:31:22;;;;;;;1.30;1.00;;;;;;;27.37;41.51;100111.95;84091;278;22584;-66
2023/08/26 07:33:24;;;;;;;1.20;1.10;;;;;;;27.56;41.23;100120.64;83929;285;137942;-66
2023/08/26 07:35:25;;;;;;;3.20;1.30;;;;;;;27.69;40.51;100122.91;84158;284;25377;-64
2023/08/26 07:37:29;;;;;;;2.40;1.20;;;;;;;27.74;40.03;100124.15;84014;284;136308;-68
2023/08/26 07:39:31;;;;;;;3.60;1.70;;;;;;;27.73;40.33;100125.45;84521;284;22555;-64
2023/08/26 07:41:33;;;;;;;4.70;1.30;;;;;;;27.74;39.83;100126.34;83914;285;137788;-66
2023/08/26 07:43:37;;;;;;;2.30;1.60;;;;;;;27.68;39.84;100117.08;83880;287;22998;-65
2023/08/26 07:45:39;;;;;;;3.30;1.80;;;;;;;27.73;39.76;100121.45;83964;285;137357;-63
2023/08/26 07:47:42;;;;;;;1.80;1.60;;;;;;;27.75;40.14;100120.63;83960;285;25164;-64
2023/08/26 07:49:47;;;;;;;1.30;1.20;;;;;;;27.78;40.01;100118.00;83866;285;137317;-68
2023/08/26 07:51:49;;;;;;;4.80;2.00;;;;;;;27.79;40.38;100110.92;83896;285;24430;-66
2023/08/26 07:53:50;;;;;;;3.30;1.20;;;;;;;27.82;40.06;100116.27;83918;285;137139;-65
2023/08/26 07:55:52;;;;;;;2.40;1.60;;;;;;;27.88;39.61;100113.85;84027;284;26898;-65
2023/08/26 07:57:54;;;;;;;5.70;1.40;;;;;;;27.93;39.56;100110.17;83906;285;136045;-66
2023/08/26 07:59:56;;;;;;;2.50;1.60;;;;;;;28.04;39.19;100104.61;83883;278;22594;-68
2023/08/26 08:01:58;;;;;;;4.50;1.30;;;;;;;28.16;39.03;100102.34;84225;285;136879;-67
2023/08/26 08:03:59;;;;;;;2.20;1.40;;;;;;;28.28;39.25;100102.48;83900;286;24350;-63
2023/08/26 08:06:01;;;;;;;1.70;1.30;;;;;;;28.37;38.79;100106.41;84102;285;135943;-63
2023/08/26 08:08:04;;;;;;;3.10;1.80;;;;;;;28.44;38.46;100102.23;83852;284;138377;-63
2023/08/26 08:10:06;;;;;;;3.90;1.50;;;;;;;28.50;38.24;100102.52;84118;286;23623;-62
2023/08/26 08:12:09;;;;;;;2.50;0.80;;;;;;;28.47;38.11;100100.02;85400;284;137289;-62
2023/08/26 08:14:11;;;;;;;1.30;1.20;;;;;;;28.42;37.62;100095.10;84179;285;22928;-64
2023/08/26 08:16:13;;;;;;;1.00;0.90;;;;;;;28.28;37.76;100083.07;83897;281;136759;-62
2023/08/26 08:18:15;;;;;;;2.90;0.90;;;;;;;28.24;37.21;100079.96;84001;285;22604;-68
2023/08/26 08:20:19;;;;;;;5.70;1.20;;;;;;;28.20;37.39;100084.86;83836;284;137855;-72
2023/08/26 08:22:33;;;;;;;;;;;;;;;28.24;37.42;100090.82;86737;284;22553;-72
2023/08/26 08:24:35;;;;;;;4.50;0.80;;;;;;;28.22;37.45;100077.36;85595;285;122834;-73
2023/08/26 08:26:37;;;;;;;2.00;1.10;;;;;;;28.28;37.48;100086.80;83948;284;22562;-73
2023/08/26 08:28:39;;;;;;;0.90;0.70;;;;;;;28.35;37.10;100087.78;84019;284;137243;-73
2023/08/26 08:30:40;;;;;;;3.90;1.30;;;;;;;28.41;36.91;100088.89;84416;284;23046;-71
2023/08/26 08:32:42;;;;;;;2.40;1.00;;;;;;;28.45;36.88;100089.16;83778;285;136233;-74
2023/08/26 08:34:44;;;;;;;5.80;0.60;;;;;;;28.46;37.08;100091.94;83960;284;22555;-74
2023/08/26 08:36:46;;;;;;;3.00;1.00;;;;;;;28.50;36.96;100093.04;84561;284;136324;-73
2023/08/26 08:38:47;;;;;;;1.50;0.80;;;;;;;28.57;36.71;100094.83;84753;284;23753;-72
2023/08/26 08:40:50;;;;;;;1.80;0.90;;;;;;;28.67;36.71;100087.11;84234;284;136998;-71
2023/08/26 08:42:52;;;;;;;5.80;1.30;;;;;;;28.79;36.80;100087.09;84046;284;22552;-69
2023/08/26 08:44:55;;;;;;;1.40;0.90;;;;;;;28.87;36.59;100085.06;84517;285;136190;-72
2023/08/26 08:46:57;;;;;;;3.30;0.70;;;;;;;28.94;36.67;100082.66;83967;285;25299;-73
2023/08/26 08:48:58;;;;;;;2.30;1.40;;;;;;;29.01;36.52;100080.16;83962;284;136454;-73
2023/08/26 08:51:03;;;;;;;4.90;1.50;;;;;;;29.09;36.33;100078.94;84003;285;22556;-74
2023/08/26 08:53:05;;;;;;;;;;;;;;;29.15;36.29;100079.71;84112;284;136457;-72
2023/08/26 08:55:08;;;;;;;2.80;1.20;;;;;;;29.12;36.28;100075.89;84414;285;22592;-71
2023/08/26 08:57:13;;;;;;;1.30;0.80;;;;;;;29.08;36.31;100073.80;83902;285;136766;-71
2023/08/26 08:59:16;;;;;;;3.00;0.90;;;;;;;29.14;36.10;100074.95;84321;285;23196;-71
2023/08/26 09:01:20;;;;;;;2.10;1.30;;;;;;;29.20;35.95;100074.23;83884;285;137742;-73
2023/08/26 09:03:22;;;;;;;;;;;;;;;29.24;36.04;100075.11;84446;286;22542;-75
2023/08/26 09:05:26;;;;;;;1.30;1.20;;;;;;;29.23;35.55;100077.81;84088;285;123345;-71
2023/08/26 09:07:28;;;;;;;1.30;1.00;;;;;;;29.10;35.34;100069.73;84072;286;24147;-72
2023/08/26 09:09:30;;;;;;;1.30;0.80;;;;;;;29.05;35.33;100075.20;83917;285;136214;-73
2023/08/26 09:11:50;;;;;;;1.50;0.90;;;;;;;29.05;35.43;100071.46;83942;285;25610;-73
2023/08/26 09:13:52;;;;;;;4.40;1.10;;;;;;;29.11;35.65;100074.23;83859;273;137053;-74
2023/08/26 09:17:58;;;;;;;6.20;1.70;;;;;;;29.15;36.92;100073.85;82666;305;547847;-74
2023/08/26 09:20:03;;;;;;;2.60;1.30;;;;;;;29.16;37.29;100068.67;83526;295;22577;-72
2023/08/26 09:22:07;;;;;;;2.50;1.10;;;;;;;29.16;38.11;100063.98;83564;296;22589;-70
2023/08/26 09:24:13;;;;;;;1.40;1.30;;;;;;;29.20;39.39;100065.58;83783;284;135776;-72
2023/08/26 09:26:16;;;;;;;3.20;1.60;;;;;;;29.17;40.13;100062.87;84013;290;24272;-76
2023/08/26 09:28:21;;;;;;;3.30;1.50;;;;;;;29.21;40.51;100058.36;83712;290;137294;-71
2023/08/26 09:30:22;;;;;;;1.60;1.40;;;;;;;29.27;40.42;100058.55;84203;289;25252;-74
2023/08/26 09:32:32;;;;;;;2.10;1.80;;;;;;;29.33;40.67;100059.08;83726;288;616820;-73
2023/08/26 09:34:34;;;;;;;2.10;1.50;;;;;;;29.43;40.68;100048.92;84150;288;22568;-73
2023/08/26 09:36:41;;;;;;;2.00;1.20;;;;;;;29.34;40.75;100023.85;83886;287;135941;-74